Thamesteel1 — V7OI7 — position and weather

sailwx.info

Track history (hours):
 
Tides and Currents Weather Stations Pressure Air Temp Water Temp Dewpoint Dewpoint Depression Visibility Wind Speed Wind Dir Waves Ship Positions

Thamesteel1

Last reported at 2017-Jan-12 17:31 UTC. Time now 2017-Jan-20 09:55 UTC.
Position N 36°09' W 005°23'.

Length 89 m; draft 4.8 m.

Type: Cargo ship. MMSI: 538003096.

Date/timePositionNaut miles runAvg speedWind from/ knotsBaromVisibWave heightAir tempDewpointWater temp
2017-Jan-12 17:31N 36°09' W 005°23'0 0.1
2017-Jan-12 16:07N 36°09' W 005°23'3 5.1
2017-Jan-12 15:30N 36°06' W 005°22'9 9.7
2017-Jan-12 14:33N 36°06' W 005°10'11612.8
2017-Jan-12 05:30N 36°22' W 002°48'1112.0
2017-Jan-12 04:33N 36°23' W 002°34'1211.9
2017-Jan-12 03:32N 36°24' W 002°19'1211.9
2017-Jan-12 02:33N 36°26' W 002°05'  
2017-Jan-09 10:06N 36°42' E 013°30'813.0
2017-Jan-09 09:31N 36°40' E 013°39'1313.3
2017-Jan-09 08:33N 36°37' E 013°55'1313.2
2017-Jan-09 07:33N 36°34' E 014°11'1313.0
2017-Jan-09 06:33N 36°31' E 014°26'1313.1
2017-Jan-09 05:33N 36°28' E 014°42'  
Track history (hours):
 
Tides and Currents Weather Stations Pressure Air Temp Water Temp Dewpoint Dewpoint Depression Visibility Wind Speed Wind Dir Waves Ship Positions

Thamesteel1

Last reported at 2017-Jan-12 17:31 UTC. Time now 2017-Jan-20 09:55 UTC.
Position N 36°09' W 005°23'.

Length 89 m; draft 4.8 m.

Type: Cargo ship. MMSI: 538003096.

Date/timePositionNaut miles runAvg speedWind from/ knotsBaromVisibWave heightAir tempDewpointWater temp
2017-Jan-12 17:31N 36°09' W 005°23'0 0.1
2017-Jan-12 16:07N 36°09' W 005°23'3 5.1
2017-Jan-12 15:30N 36°06' W 005°22'9 9.7
2017-Jan-12 14:33N 36°06' W 005°10'11612.8
2017-Jan-12 05:30N 36°22' W 002°48'1112.0
2017-Jan-12 04:33N 36°23' W 002°34'1211.9
2017-Jan-12 03:32N 36°24' W 002°19'1211.9
2017-Jan-12 02:33N 36°26' W 002°05'  
2017-Jan-09 10:06N 36°42' E 013°30'813.0
2017-Jan-09 09:31N 36°40' E 013°39'1313.3
2017-Jan-09 08:33N 36°37' E 013°55'1313.2
2017-Jan-09 07:33N 36°34' E 014°11'1313.0
2017-Jan-09 06:33N 36°31' E 014°26'1313.1
2017-Jan-09 05:33N 36°28' E 014°42'  

Dump ship's entire track history